Time;durP1;ratioP1;P1;durP2;ratioP2;P2;SDS_P1;SDS_P2;PMS_P1;PMS_P2;Temp;Humidity;BMP_temperature;BMP_pressure;BME280_temperature;BME280_humidity;BME280_pressure;Samples;Min_cycle;Max_cycle;Signal;HPM_P1;HPM_P2
2022/10/02 00:02:18;;;;;;;4.55;1.25;;;14.60;97.00;;;;;;10181639;28;20082;-67
2022/10/02 00:07:25;;;;;;;3.85;1.13;;;14.60;97.00;;;;;;10246303;28;20047;-65
2022/10/02 00:12:28;;;;;;;6.72;1.60;;;14.60;97.00;;;;;;10250380;28;20020;-65
2022/10/02 00:17:39;;;;;;;3.72;1.27;;;14.60;97.00;;;;;;10240424;28;20042;-65
2022/10/02 00:23:12;;;;;;;6.93;1.73;;;14.60;97.00;;;;;;10248858;28;20374;-65
2022/10/02 00:28:47;;;;;;;5.35;1.30;;;14.60;97.00;;;;;;10238467;28;20040;-65
2022/10/02 00:34:09;;;;;;;4.90;1.60;;;14.60;97.00;;;;;;10236906;28;20158;-66
2022/10/02 00:39:24;;;;;;;5.28;1.40;;;14.50;96.90;;;;;;10239636;28;20051;-65
2022/10/02 00:44:57;;;;;;;1.95;1.17;;;14.60;97.00;;;;;;10234290;28;20110;-65
2022/10/02 00:50:16;;;;;;;2.53;1.02;;;14.50;96.90;;;;;;10235253;28;20020;-65
2022/10/02 00:55:23;;;;;;;3.13;1.45;;;14.50;96.90;;;;;;10234564;28;20027;-65
2022/10/02 01:00:25;;;;;;;5.78;1.35;;;14.50;96.90;;;;;;10230764;28;20428;-65
2022/10/02 01:05:26;;;;;;;3.75;1.20;;;14.50;96.90;;;;;;10238947;28;20023;-64
2022/10/02 01:10:28;;;;;;;2.70;1.52;;;14.50;96.90;;;;;;10238188;28;20023;-65
2022/10/02 01:15:33;;;;;;;5.68;1.58;;;14.50;96.90;;;;;;10243661;28;20051;-65
2022/10/02 01:20:41;;;;;;;2.75;1.27;;;14.50;96.90;;;;;;10238331;28;20038;-66
2022/10/02 01:25:42;;;;;;;4.57;1.40;;;14.50;96.90;;;;;;10245928;28;20033;-65
2022/10/02 01:30:47;;;;;;;2.90;1.00;;;14.50;96.90;;;;;;10228420;28;20051;-65
2022/10/02 01:35:48;;;;;;;2.13;1.38;;;14.50;96.90;;;;;;10239256;28;20056;-67
2022/10/02 01:40:49;;;;;;;5.07;1.50;;;14.50;96.90;;;;;;10228433;28;20039;-67
2022/10/02 01:45:57;;;;;;;6.25;1.80;;;14.40;97.10;;;;;;10252741;28;20042;-65
2022/10/02 01:51:22;;;;;;;3.93;1.27;;;14.40;96.90;;;;;;10248798;28;20078;-68
2022/10/02 01:56:33;;;;;;;1.90;1.15;;;14.40;96.90;;;;;;10243154;28;20511;-68
2022/10/02 02:02:00;;;;;;;3.63;1.45;;;14.40;96.90;;;;;;10237821;28;20093;-66
2022/10/02 02:07:15;;;;;;;5.55;1.48;;;14.40;96.90;;;;;;10253450;28;20023;-67
2022/10/02 02:12:42;;;;;;;2.67;0.95;;;14.40;96.90;;;;;;10238853;28;20051;-67
2022/10/02 02:17:52;;;;;;;3.75;1.13;;;14.40;96.90;;;;;;10235796;28;20485;-68
2022/10/02 02:22:56;;;;;;;4.43;1.20;;;14.40;96.90;;;;;;10221816;28;20020;-67
2022/10/02 02:28:02;;;;;;;6.13;1.70;;;14.40;96.90;;;;;;10238721;28;20038;-65
2022/10/02 02:33:33;;;;;;;3.75;1.15;;;14.40;96.90;;;;;;10237439;28;20035;-68
2022/10/02 02:38:45;;;;;;;2.03;1.20;;;14.40;97.00;;;;;;10232352;28;20115;-66
2022/10/02 02:44:05;;;;;;;3.92;1.25;;;14.30;96.90;;;;;;10240410;28;20114;-65
2022/10/02 02:49:10;;;;;;;2.53;1.20;;;14.30;96.90;;;;;;10233732;28;20038;-67
2022/10/02 02:54:22;;;;;;;2.47;1.40;;;14.30;96.90;;;;;;10234726;28;20062;-66
2022/10/02 02:59:30;;;;;;;3.80;1.40;;;14.30;97.00;;;;;;10237695;28;20137;-65
2022/10/02 03:04:31;;;;;;;2.85;1.08;;;14.30;96.90;;;;;;10236535;28;20037;-66
2022/10/02 03:09:32;;;;;;;5.82;1.10;;;14.30;96.90;;;;;;10238487;28;20056;-68
2022/10/02 03:15:07;;;;;;;2.53;1.00;;;14.30;96.90;;;;;;10236549;28;20030;-68
2022/10/02 03:20:47;;;;;;;1.60;0.82;;;14.30;96.90;;;;;;10187561;28;20547;-68
2022/10/02 03:25:52;;;;;;;2.92;0.90;;;14.30;97.00;;;;;;10222912;28;20040;-65
2022/10/02 03:30:55;;;;;;;4.10;1.33;;;14.30;97.00;;;;;;10198377;28;1247372;-66
2022/10/02 03:35:56;;;;;;;2.15;1.05;;;14.30;96.90;;;;;;10238802;28;20038;-68
2022/10/02 03:40:57;;;;;;;2.38;0.90;;;14.20;96.90;;;;;;10244902;28;20515;-65
2022/10/02 03:45:57;;;;;;;2.03;0.85;;;14.20;96.90;;;;;;10240751;28;20037;-67
2022/10/02 03:50:58;;;;;;;2.78;0.73;;;14.20;96.90;;;;;;10241202;28;20030;-67
2022/10/02 03:56:03;;;;;;;2.90;1.08;;;14.20;96.90;;;;;;10240683;28;20019;-68
2022/10/02 04:01:06;;;;;;;2.33;1.00;;;14.20;96.90;;;;;;10245772;28;20098;-65
2022/10/02 04:06:46;;;;;;;3.00;1.00;;;14.20;97.00;;;;;;10234641;28;20026;-65
2022/10/02 04:11:53;;;;;;;2.90;0.77;;;14.20;97.00;;;;;;10231632;28;20126;-65
2022/10/02 04:17:06;;;;;;;2.88;0.82;;;14.20;97.00;;;;;;10231398;28;20118;-65
2022/10/02 04:22:23;;;;;;;1.98;0.90;;;14.20;97.00;;;;;;10237611;28;20043;-65
2022/10/02 04:27:41;;;;;;;3.80;0.82;;;14.10;97.00;;;;;;10234753;28;20075;-66
2022/10/02 04:32:41;;;;;;;2.53;0.88;;;14.20;97.00;;;;;;10233893;28;20078;-65
2022/10/02 04:38:00;;;;;;;3.08;0.95;;;14.10;97.00;;;;;;10231556;28;20496;-65
2022/10/02 04:43:33;;;;;;;3.28;0.77;;;14.10;97.00;;;;;;10244133;28;20361;-65
2022/10/02 04:49:31;;;;;;;2.97;1.00;;;14.10;97.00;;;;;;10213469;28;20075;-65
2022/10/02 04:54:32;;;;;;;2.87;1.00;;;14.10;97.00;;;;;;10245257;23;20048;-65
2022/10/02 04:59:33;;;;;;;1.58;1.00;;;14.10;97.00;;;;;;10200199;29;20039;-65
2022/10/02 05:04:39;;;;;;;3.08;0.85;;;14.10;97.00;;;;;;10210003;29;20019;-65
2022/10/02 05:10:12;;;;;;;6.35;1.10;;;14.10;97.00;;;;;;10206022;29;20264;-66
2022/10/02 05:15:37;;;;;;;5.38;1.10;;;14.10;97.00;;;;;;10204626;29;20602;-65
2022/10/02 05:20:43;;;;;;;9.95;1.00;;;14.10;97.00;;;;;;10199048;29;20047;-65
2022/10/02 05:26:13;;;;;;;3.65;1.00;;;14.10;97.00;;;;;;10206436;29;20419;-66
2022/10/02 05:31:30;;;;;;;2.78;1.08;;;14.00;97.00;;;;;;10198533;29;20510;-65
2022/10/02 05:36:58;;;;;;;3.20;0.82;;;14.00;97.00;;;;;;10210897;29;20016;-66
2022/10/02 05:42:31;;;;;;;4.43;1.17;;;14.00;97.00;;;;;;10203914;29;20135;-66
2022/10/02 05:47:40;;;;;;;2.38;0.90;;;14.00;97.00;;;;;;10205147;29;20024;-66
2022/10/02 05:52:43;;;;;;;;;;;14.00;97.00;;;;;;10201431;29;20030;-67
2022/10/02 05:58:14;;;;;;;2.88;0.80;;;14.00;97.10;;;;;;10135141;29;19930;-65
2022/10/02 06:03:52;;;;;;;2.92;1.05;;;14.00;97.00;;;;;;10133156;29;20038;-66
2022/10/02 06:08:59;;;;;;;2.53;1.00;;;14.00;97.00;;;;;;10137944;29;20318;-68
2022/10/02 06:14:09;;;;;;;3.30;0.98;;;14.00;97.00;;;;;;10140388;29;20775;-66
2022/10/02 06:19:47;;;;;;;6.85;1.15;;;14.00;97.00;;;;;;10130470;29;20039;-65
2022/10/02 06:24:57;;;;;;;4.10;1.00;;;14.00;97.00;;;;;;10141557;29;20118;-65
2022/10/02 06:30:16;;;;;;;4.68;1.10;;;14.00;97.00;;;;;;10130648;29;20030;-65
2022/10/02 06:35:29;;;;;;;4.05;1.95;;;14.00;97.00;;;;;;10128198;29;20504;-65
2022/10/02 06:40:44;;;;;;;5.68;0.82;;;14.00;96.90;;;;;;10120450;29;20035;-65
2022/10/02 06:46:27;;;;;;;3.53;1.08;;;14.00;96.90;;;;;;10127713;29;20314;-65
2022/10/02 06:52:05;;;;;;;2.50;0.90;;;14.10;96.90;;;;;;10116345;29;20059;-66
2022/10/02 06:57:32;;;;;;;2.72;1.00;;;14.10;96.90;;;;;;10124025;29;20859;-65
2022/10/02 07:03:08;;;;;;;2.72;0.70;;;14.20;96.90;;;;;;10135252;28;20563;-65
2022/10/02 07:08:52;;;;;;;3.33;0.82;;;14.10;96.90;;;;;;10137877;29;20034;-65
2022/10/02 07:14:11;;;;;;;4.55;0.98;;;14.10;96.90;;;;;;10127208;29;20572;-65
2022/10/02 07:19:27;;;;;;;2.85;0.90;;;14.10;96.90;;;;;;10128805;29;20216;-65
2022/10/02 07:24:43;;;;;;;1.77;0.90;;;14.10;96.90;;;;;;10134075;29;20491;-65
2022/10/02 07:30:00;;;;;;;3.00;0.98;;;14.20;96.90;;;;;;10131229;29;22560;-65
2022/10/02 07:35:24;;;;;;;5.50;1.08;;;14.30;96.80;;;;;;10126824;29;20137;-65
2022/10/02 07:40:49;;;;;;;1.90;0.70;;;14.40;96.70;;;;;;10116346;29;20971;-66
2022/10/02 07:45:57;;;;;;;4.45;0.98;;;14.50;96.70;;;;;;10118577;29;20043;-64
2022/10/02 07:56:34;;;;;;;5.25;1.15;;;14.70;96.50;;;;;;10113171;29;20051;-68
2022/10/02 08:01:38;;;;;;;4.07;1.13;;;14.80;96.40;;;;;;10112132;29;20049;-68
2022/10/02 08:06:52;;;;;;;2.63;0.90;;;14.80;96.40;;;;;;10115574;29;20035;-64
2022/10/02 08:12:06;;;;;;;3.97;1.13;;;14.80;96.60;;;;;;10119518;29;20044;-65
2022/10/02 08:17:29;;;;;;;3.13;0.88;;;14.80;96.60;;;;;;10121617;29;20023;-66
2022/10/02 08:22:36;;;;;;;4.43;1.00;;;14.80;96.50;;;;;;10115921;29;20372;-66
2022/10/02 08:28:01;;;;;;;2.72;0.80;;;14.90;96.50;;;;;;10127956;29;21013;-65
2022/10/02 08:33:14;;;;;;;2.60;0.95;;;14.90;96.60;;;;;;10122747;29;20039;-66
2022/10/02 08:38:53;;;;;;;4.93;1.40;;;15.00;96.50;;;;;;10107339;29;20153;-62
2022/10/02 08:44:00;;;;;;;4.50;0.82;;;15.00;96.60;;;;;;10060762;29;20086;-64
2022/10/02 08:49:11;;;;;;;5.45;1.02;;;15.00;96.50;;;;;;10103754;29;20039;-62
2022/10/02 08:54:45;;;;;;;4.75;1.00;;;15.00;96.50;;;;;;10100218;29;20321;-62
2022/10/02 08:59:51;;;;;;;2.95;0.90;;;15.40;96.70;;;;;;10095759;29;20043;-64
2022/10/02 09:05:11;;;;;;;3.20;1.05;;;15.10;96.60;;;;;;10114471;29;20952;-63
2022/10/02 09:10:58;;;;;;;4.95;1.00;;;15.10;96.60;;;;;;10113279;29;20036;-63
2022/10/02 09:16:17;;;;;;;2.42;1.08;;;14.80;96.60;;;;;;10111628;29;20031;-65
2022/10/02 09:21:48;;;;;;;4.57;1.00;;;15.30;96.60;;;;;;10105681;29;20056;-64
2022/10/02 09:26:59;;;;;;;2.95;1.30;;;15.30;96.60;;;;;;10122309;29;20035;-64
2022/10/02 09:32:45;;;;;;;4.88;1.50;;;15.40;96.50;;;;;;10126993;29;20118;-62
2022/10/02 09:37:55;;;;;;;4.65;1.00;;;15.40;96.60;;;;;;10094066;29;20315;-64
2022/10/02 09:43:07;;;;;;;10.13;1.38;;;15.40;96.40;;;;;;10120176;29;20043;-71
2022/10/02 09:49:01;;;;;;;7.25;1.77;;;15.50;97.00;;;;;;10101436;29;20046;-64
2022/10/02 09:54:50;;;;;;;9.52;1.75;;;15.60;97.10;;;;;;10082641;29;20043;-63
2022/10/02 10:00:10;;;;;;;9.32;1.40;;;15.70;97.40;;;;;;10107834;29;20048;-63
2022/10/02 10:05:33;;;;;;;7.50;1.58;;;15.90;96.60;;;;;;10121874;29;20147;-61
2022/10/02 10:10:59;;;;;;;8.90;1.60;;;16.00;96.50;;;;;;10105893;29;20131;-65
2022/10/02 10:16:40;;;;;;;12.82;2.28;;;16.10;96.20;;;;;;10093722;29;20051;-65
2022/10/02 10:22:08;;;;;;;7.38;1.90;;;16.30;96.30;;;;;;10124979;29;20051;-65
2022/10/02 10:27:28;;;;;;;;;;;16.50;96.40;;;;;;10115384;29;20030;-63
2022/10/02 10:33:00;;;;;;;6.40;1.35;;;16.20;95.80;;;;;;10111263;29;19918;-63
2022/10/02 10:38:32;;;;;;;9.15;1.80;;;16.20;95.90;;;;;;10121880;29;20592;-65
2022/10/02 10:43:52;;;;;;;8.63;1.40;;;16.00;96.00;;;;;;10123349;29;20488;-66
2022/10/02 10:49:22;;;;;;;14.40;1.90;;;16.00;95.70;;;;;;10115273;29;20259;-72
2022/10/02 10:54:49;;;;;;;4.35;1.25;;;16.30;95.50;;;;;;10131711;29;20134;-63
2022/10/02 10:59:59;;;;;;;4.78;1.25;;;16.50;95.00;;;;;;10112141;29;20393;-64
2022/10/02 11:05:23;;;;;;;4.50;1.17;;;16.70;94.90;;;;;;10133775;29;20035;-60
2022/10/02 11:10:24;;;;;;;7.03;1.20;;;16.90;94.30;;;;;;10111106;29;20474;-61
2022/10/02 11:16:05;;;;;;;9.25;1.40;;;17.00;94.20;;;;;;10120958;29;20036;-63
2022/10/02 11:21:15;;;;;;;9.38;1.48;;;17.20;93.60;;;;;;10120222;29;20075;-61
2022/10/02 11:26:33;;;;;;;5.78;1.30;;;17.10;94.00;;;;;;10125497;29;20585;-60
2022/10/02 11:32:13;;;;;;;8.97;1.37;;;16.90;94.00;;;;;;10117789;29;20349;-61
2022/10/02 11:37:30;;;;;;;5.38;1.30;;;16.70;94.70;;;;;;10121069;29;20559;-60
2022/10/02 11:42:44;;;;;;;8.35;1.48;;;16.40;95.30;;;;;;10107069;29;20471;-67
2022/10/02 11:48:11;;;;;;;9.52;2.10;;;16.50;95.30;;;;;;10126029;29;20051;-62
2022/10/02 11:53:37;;;;;;;6.32;1.05;;;16.70;94.80;;;;;;10125699;29;20035;-61
2022/10/02 11:58:48;;;;;;;8.52;1.10;;;16.60;94.60;;;;;;10129675;29;20051;-67
2022/10/02 12:04:17;;;;;;;9.10;1.40;;;16.50;95.20;;;;;;10125165;29;20276;-63
2022/10/02 12:09:58;;;;;;;4.38;1.55;;;16.50;95.40;;;;;;10129668;29;20170;-62
2022/10/02 12:15:13;;;;;;;9.10;1.20;;;16.40;95.40;;;;;;10121321;29;20340;-62
2022/10/02 12:32:11;;;;;;;8.30;1.23;;;16.70;94.70;;;;;;10119402;29;20054;-63
2022/10/02 12:37:35;;;;;;;8.90;1.35;;;16.90;93.70;;;;;;10128600;29;21106;-71
2022/10/02 12:43:20;;;;;;;7.35;1.67;;;16.80;93.70;;;;;;10125323;29;20047;-63
2022/10/02 12:48:49;;;;;;;7.25;1.52;;;16.80;92.60;;;;;;10123469;29;20519;-63
2022/10/02 12:54:25;;;;;;;6.85;1.10;;;17.00;92.80;;;;;;10121337;29;20174;-63
2022/10/02 12:59:48;;;;;;;6.15;1.17;;;17.20;92.40;;;;;;10102060;29;20330;-62
2022/10/02 13:05:34;;;;;;;5.55;1.30;;;17.00;92.70;;;;;;10114776;29;20606;-64
2022/10/02 13:10:56;;;;;;;4.95;1.40;;;17.10;93.10;;;;;;10063768;29;20044;-64
2022/10/02 13:16:21;;;;;;;7.53;1.10;;;17.00;93.70;;;;;;10108416;29;20674;-64
2022/10/02 13:21:45;;;;;;;5.00;1.00;;;17.00;93.70;;;;;;10091707;29;20044;-63
2022/10/02 13:26:52;;;;;;;5.03;1.20;;;17.00;93.90;;;;;;10111813;29;20036;-63
2022/10/02 13:32:18;;;;;;;6.75;1.00;;;17.10;94.10;;;;;;10109520;29;20032;-65
2022/10/02 13:37:43;;;;;;;5.57;1.10;;;17.10;94.00;;;;;;10103161;29;20283;-64
2022/10/02 13:43:26;;;;;;;6.07;1.10;;;17.20;94.10;;;;;;10114232;29;20489;-65
2022/10/02 13:49:05;;;;;;;4.88;0.98;;;17.30;94.10;;;;;;10107925;29;20047;-65
2022/10/02 13:54:09;;;;;;;4.85;1.00;;;17.30;94.20;;;;;;10053793;29;20491;-65
2022/10/02 13:59:40;;;;;;;4.50;1.05;;;17.40;94.20;;;;;;10135564;29;20040;-63
2022/10/02 14:04:59;;;;;;;3.83;0.93;;;17.50;94.10;;;;;;10132984;29;20124;-63
2022/10/02 14:10:15;;;;;;;4.45;0.93;;;17.50;94.20;;;;;;10121255;29;20150;-64
2022/10/02 14:15:41;;;;;;;5.00;0.90;;;17.60;94.20;;;;;;10111289;29;20359;-64
2022/10/02 14:20:54;;;;;;;5.30;1.20;;;17.60;94.30;;;;;;10117806;29;20044;-72
2022/10/02 14:26:04;;;;;;;3.83;1.17;;;17.60;94.40;;;;;;10117793;29;20034;-61
2022/10/02 14:31:25;;;;;;;4.03;1.02;;;17.70;94.40;;;;;;10131840;29;20976;-66
2022/10/02 14:36:39;;;;;;;4.55;1.05;;;17.80;94.40;;;;;;10122797;29;20039;-64
2022/10/02 14:42:02;;;;;;;6.72;1.05;;;17.90;94.30;;;;;;10112204;29;20461;-62
2022/10/02 14:47:25;;;;;;;5.18;1.00;;;18.00;94.20;;;;;;10118796;29;20032;-62
2022/10/02 14:52:59;;;;;;;3.95;0.77;;;18.10;94.10;;;;;;10118421;29;20393;-63
2022/10/02 14:58:20;;;;;;;3.90;0.80;;;18.10;94.00;;;;;;10118237;29;20284;-63
2022/10/02 15:03:46;;;;;;;3.83;1.30;;;18.20;93.70;;;;;;10112024;29;20551;-63
2022/10/02 15:08:52;;;;;;;3.45;0.85;;;18.10;93.80;;;;;;10121013;29;20611;-63
2022/10/02 15:14:07;;;;;;;5.15;1.20;;;18.10;94.00;;;;;;10114286;29;20032;-63
2022/10/02 15:19:10;;;;;;;7.32;2.33;;;18.00;94.10;;;;;;10119775;29;20040;-63
2022/10/02 15:24:41;;;;;;;5.55;1.23;;;18.00;94.20;;;;;;10118719;29;20067;-63
2022/10/02 15:29:57;;;;;;;2.63;1.10;;;17.90;94.30;;;;;;10116920;29;20040;-63
2022/10/02 15:35:26;;;;;;;5.65;1.25;;;17.80;94.40;;;;;;10120404;29;20117;-64
2022/10/02 15:40:43;;;;;;;5.97;1.88;;;17.80;94.40;;;;;;10118004;29;20133;-62
2022/10/02 15:46:05;;;;;;;7.68;1.25;;;17.80;94.50;;;;;;10122088;29;20598;-62
2022/10/02 15:51:24;;;;;;;5.90;1.45;;;17.80;94.60;;;;;;10121396;29;20799;-64
2022/10/02 15:56:47;;;;;;;5.00;1.30;;;17.70;94.60;;;;;;10115616;29;20040;-63
2022/10/02 16:01:58;;;;;;;6.38;1.67;;;17.60;94.60;;;;;;10119993;29;20082;-65
2022/10/02 16:07:20;;;;;;;8.13;1.92;;;17.60;94.80;;;;;;10111696;29;20023;-63
2022/10/02 16:12:20;;;;;;;8.15;1.50;;;17.60;94.80;;;;;;10115568;29;20178;-63
2022/10/02 16:17:41;;;;;;;6.50;1.75;;;17.50;94.90;;;;;;10112373;29;20462;-63
2022/10/02 16:22:56;;;;;;;5.07;1.75;;;17.40;94.80;;;;;;10125257;29;20078;-64
2022/10/02 16:28:16;;;;;;;4.50;1.20;;;17.40;94.90;;;;;;10123474;29;20032;-63
2022/10/02 16:33:20;;;;;;;8.75;1.30;;;17.40;94.90;;;;;;10119785;29;20796;-63
2022/10/02 16:38:30;;;;;;;2.75;1.35;;;17.30;95.10;;;;;;10126615;29;20051;-62
2022/10/02 16:43:39;;;;;;;5.53;1.25;;;17.30;95.10;;;;;;10131866;29;20055;-63
2022/10/02 16:49:02;;;;;;;3.90;1.50;;;17.30;95.20;;;;;;10125909;29;20472;-64
2022/10/02 16:54:11;;;;;;;5.43;1.50;;;17.20;95.10;;;;;;10116485;29;20044;-63
2022/10/02 16:59:28;;;;;;;11.63;1.67;;;17.20;95.50;;;;;;10132921;23;21177;-63
2022/10/02 17:05:01;;;;;;;5.72;1.23;;;17.10;95.20;;;;;;10205681;28;20037;-64
2022/10/02 17:10:35;;;;;;;5.10;1.42;;;17.10;95.20;;;;;;10134620;28;20134;-63
2022/10/02 17:15:53;;;;;;;6.28;1.40;;;17.10;95.20;;;;;;10133753;28;20322;-63
2022/10/02 17:21:01;;;;;;;4.18;1.45;;;17.00;95.30;;;;;;10223063;28;20045;-62
2022/10/02 17:26:13;;;;;;;4.88;1.25;;;17.00;95.40;;;;;;10217388;28;20470;-63
2022/10/02 17:31:23;;;;;;;3.03;1.08;;;17.00;95.40;;;;;;10216979;28;20065;-63
2022/10/02 17:36:33;;;;;;;4.90;1.23;;;16.90;95.40;;;;;;10211994;28;20683;-62
2022/10/02 17:41:45;;;;;;;6.68;1.25;;;16.90;95.50;;;;;;10276020;28;20034;-63
2022/10/02 17:46:52;;;;;;;4.70;1.10;;;16.90;95.50;;;;;;10293312;28;20027;-63
2022/10/02 17:57:51;;;;;;;;;;;16.80;95.50;;;;;;10276537;28;20039;-63
2022/10/02 18:03:27;;;;;;;4.80;1.27;;;16.70;95.50;;;;;;10301438;28;19984;-64
2022/10/02 18:08:33;;;;;;;8.05;1.40;;;16.60;95.60;;;;;;10227633;28;20034;-63
2022/10/02 18:14:16;;;;;;;7.20;1.40;;;16.60;95.70;;;;;;10301375;28;20353;-64
2022/10/02 18:19:26;;;;;;;8.77;1.88;;;16.60;95.70;;;;;;10282038;28;20043;-63
2022/10/02 18:24:48;;;;;;;4.47;1.05;;;16.60;95.80;;;;;;10279308;28;20114;-64
2022/10/02 18:30:24;;;;;;;6.88;1.40;;;16.50;95.80;;;;;;10274185;28;20420;-64
2022/10/02 18:35:42;;;;;;;5.07;1.45;;;16.50;95.80;;;;;;10263290;28;20057;-64
2022/10/02 18:41:07;;;;;;;5.15;1.75;;;16.50;95.80;;;;;;10276275;28;20038;-63
2022/10/02 18:46:36;;;;;;;5.32;1.75;;;16.50;96.00;;;;;;10273715;28;20041;-65
2022/10/02 18:52:15;;;;;;;7.65;2.15;;;16.40;95.80;;;;;;10268986;28;20042;-64
2022/10/02 18:57:41;;;;;;;8.02;1.95;;;16.40;95.80;;;;;;10142406;28;20031;-64
2022/10/02 19:02:41;;;;;;;7.75;1.80;;;16.40;95.80;;;;;;10273046;28;20062;-65
2022/10/02 19:08:03;;;;;;;6.28;2.10;;;16.40;95.80;;;;;;10278499;28;20034;-64
2022/10/02 19:13:26;;;;;;;9.02;1.98;;;16.40;95.80;;;;;;10258834;28;20036;-64
2022/10/02 19:18:29;;;;;;;7.30;1.83;;;16.30;95.70;;;;;;10267362;28;20400;-64
2022/10/02 19:23:38;;;;;;;7.40;1.90;;;16.30;95.80;;;;;;10251105;28;20480;-64
2022/10/02 19:28:47;;;;;;;8.52;2.17;;;16.80;95.90;;;;;;10273997;28;20022;-64
2022/10/02 19:34:01;;;;;;;6.32;1.88;;;16.20;95.80;;;;;;10287536;28;20050;-67
2022/10/02 19:39:06;;;;;;;5.13;2.00;;;16.20;95.80;;;;;;10285241;28;20034;-65
2022/10/02 19:44:27;;;;;;;7.60;2.58;;;16.20;95.80;;;;;;10284877;28;20504;-67
2022/10/02 19:49:35;;;;;;;4.43;1.75;;;16.20;95.80;;;;;;10290277;28;20023;-67
2022/10/02 19:54:37;;;;;;;6.43;1.58;;;16.10;95.80;;;;;;10290896;28;20026;-67
2022/10/02 19:59:43;;;;;;;4.32;1.67;;;16.10;95.80;;;;;;10276095;28;20061;-67
2022/10/02 20:04:44;;;;;;;6.57;1.98;;;16.10;95.80;;;;;;10296730;28;20052;-65
2022/10/02 20:09:57;;;;;;;5.10;2.15;;;16.10;95.80;;;;;;10289897;28;20038;-65
2022/10/02 20:15:10;;;;;;;7.88;1.85;;;16.00;95.80;;;;;;10293197;28;20081;-68
2022/10/02 20:20:15;;;;;;;5.97;1.90;;;16.00;95.80;;;;;;10293993;28;20042;-65
2022/10/02 20:25:34;;;;;;;4.82;1.60;;;16.00;95.80;;;;;;10286044;28;20521;-67
2022/10/02 20:30:43;;;;;;;5.88;1.52;;;16.00;95.80;;;;;;10287290;28;20023;-65
2022/10/02 20:36:03;;;;;;;;;;;15.90;95.80;;;;;;10274267;28;20819;-64
2022/10/02 20:41:40;;;;;;;5.85;2.00;;;15.90;95.70;;;;;;10272395;28;19933;-67
2022/10/02 20:47:08;;;;;;;3.65;1.35;;;15.90;96.10;;;;;;10255508;28;20031;-67
2022/10/02 20:52:33;;;;;;;7.25;2.00;;;15.80;95.80;;;;;;10276052;28;20046;-64
2022/10/02 20:57:39;;;;;;;6.00;1.60;;;15.80;95.80;;;;;;10278495;28;20026;-64
2022/10/02 21:03:27;;;;;;;4.85;1.60;;;15.80;95.80;;;;;;10277478;28;20038;-64
2022/10/02 21:08:45;;;;;;;8.20;1.73;;;15.80;95.70;;;;;;10168474;28;20042;-65
2022/10/02 21:13:56;;;;;;;;;;;15.70;95.80;;;;;;10269869;28;20027;-64
2022/10/02 21:19:18;;;;;;;6.30;1.83;;;15.70;95.70;;;;;;10270365;28;20573;-64
2022/10/02 21:24:40;;;;;;;5.80;1.55;;;15.70;95.80;;;;;;10265501;28;20030;-64
2022/10/02 21:29:52;;;;;;;9.20;1.73;;;15.70;95.80;;;;;;10273231;28;20517;-64
2022/10/02 21:35:25;;;;;;;5.88;1.60;;;15.60;95.80;;;;;;10273826;28;20062;-64
2022/10/02 21:40:51;;;;;;;4.78;1.70;;;15.60;96.00;;;;;;10271896;28;20046;-65
2022/10/02 21:46:21;;;;;;;8.40;1.50;;;15.70;95.80;;;;;;10285557;28;20033;-65
2022/10/02 21:51:36;;;;;;;5.07;1.58;;;15.60;95.80;;;;;;10276391;28;20038;-64
2022/10/02 21:56:58;;;;;;;5.18;1.05;;;15.50;95.70;;;;;;10290680;28;20042;-63
2022/10/02 22:02:20;;;;;;;4.13;1.23;;;15.50;95.70;;;;;;10296638;28;20200;-62
2022/10/02 22:07:48;;;;;;;2.38;1.33;;;15.50;95.60;;;;;;10301613;28;20027;-62
2022/10/02 22:13:07;;;;;;;5.45;1.35;;;15.50;95.70;;;;;;10295718;28;20026;-62
2022/10/02 22:18:21;;;;;;;5.40;1.20;;;15.50;95.70;;;;;;10286198;28;20030;-61
2022/10/02 22:23:53;;;;;;;6.68;1.35;;;15.40;95.70;;;;;;10292245;28;20030;-63
2022/10/02 22:29:06;;;;;;;5.63;1.30;;;15.40;95.70;;;;;;10290278;28;20059;-64
2022/10/02 22:34:40;;;;;;;5.60;1.20;;;15.40;95.70;;;;;;10285118;28;20167;-63
2022/10/02 22:39:52;;;;;;;5.50;1.50;;;15.30;95.60;;;;;;10291240;28;20372;-63
2022/10/02 22:45:01;;;;;;;3.63;1.13;;;15.30;95.60;;;;;;10285327;28;20506;-63
2022/10/02 22:50:18;;;;;;;5.10;1.27;;;15.30;95.60;;;;;;10269811;28;20089;-63
2022/10/02 22:55:32;;;;;;;3.80;0.90;;;15.30;95.60;;;;;;10283953;28;20030;-64
2022/10/02 23:01:19;;;;;;;6.22;1.30;;;15.30;95.60;;;;;;10288822;28;20046;-64
2022/10/02 23:06:22;;;;;;;6.18;1.30;;;15.20;95.60;;;;;;10281971;28;20410;-63
2022/10/02 23:11:45;;;;;;;3.67;1.00;;;15.20;95.60;;;;;;10288938;28;20069;-63
2022/10/02 23:16:53;;;;;;;4.25;1.10;;;15.20;95.60;;;;;;10286680;28;20546;-63
2022/10/02 23:22:05;;;;;;;5.47;0.80;;;15.20;95.60;;;;;;10288758;28;20043;-62
2022/10/02 23:27:17;;;;;;;3.42;1.10;;;15.20;95.60;;;;;;10286459;28;20844;-63
2022/10/02 23:32:40;;;;;;;6.55;1.67;;;15.20;95.60;;;;;;10287266;28;20037;-62
2022/10/02 23:38:04;;;;;;;3.40;0.90;;;15.10;95.60;;;;;;10281562;28;20026;-63
2022/10/02 23:43:05;;;;;;;3.78;0.98;;;15.10;95.60;;;;;;10287414;28;20038;-63
2022/10/02 23:48:17;;;;;;;3.17;1.02;;;15.10;95.60;;;;;;10285606;28;20061;-63
2022/10/02 23:53:51;;;;;;;4.65;0.80;;;15.10;95.60;;;;;;10288758;28;20029;-63
2022/10/02 23:59:20;;;;;;;4.68;0.80;;;15.00;95.50;;;;;;10286473;28;20057;-63
